sensor_id;sensor_type;location;lat;lon;timestamp;P1;durP1;ratioP1;P2;durP2;ratioP2
8490;SDS011;4282;49.986;7.938;2023-01-04T00:01:23;8.80;;;5.83;;
8490;SDS011;4282;49.986;7.938;2023-01-04T00:03:52;10.67;;;6.13;;
8490;SDS011;4282;49.986;7.938;2023-01-04T00:06:20;9.73;;;6.33;;
8490;SDS011;4282;49.986;7.938;2023-01-04T00:08:48;11.00;;;7.13;;
8490;SDS011;4282;49.986;7.938;2023-01-04T00:11:18;11.13;;;7.07;;
8490;SDS011;4282;49.986;7.938;2023-01-04T00:13:50;10.70;;;6.53;;
8490;SDS011;4282;49.986;7.938;2023-01-04T00:16:20;10.97;;;5.87;;
8490;SDS011;4282;49.986;7.938;2023-01-04T00:18:49;16.40;;;6.67;;
8490;SDS011;4282;49.986;7.938;2023-01-04T00:21:18;11.30;;;6.63;;
8490;SDS011;4282;49.986;7.938;2023-01-04T00:23:49;9.00;;;6.37;;
8490;SDS011;4282;49.986;7.938;2023-01-04T00:26:19;8.47;;;5.53;;
8490;SDS011;4282;49.986;7.938;2023-01-04T00:28:54;10.20;;;6.20;;
8490;SDS011;4282;49.986;7.938;2023-01-04T00:31:24;7.57;;;5.60;;
8490;SDS011;4282;49.986;7.938;2023-01-04T00:33:54;8.40;;;5.50;;
8490;SDS011;4282;49.986;7.938;2023-01-04T00:36:22;6.97;;;5.17;;
8490;SDS011;4282;49.986;7.938;2023-01-04T00:38:51;6.33;;;4.67;;
8490;SDS011;4282;49.986;7.938;2023-01-04T00:41:33;7.93;;;4.77;;
8490;SDS011;4282;49.986;7.938;2023-01-04T00:44:06;10.20;;;5.70;;
8490;SDS011;4282;49.986;7.938;2023-01-04T00:46:35;11.00;;;6.53;;
8490;SDS011;4282;49.986;7.938;2023-01-04T00:49:04;9.13;;;5.13;;
8490;SDS011;4282;49.986;7.938;2023-01-04T00:51:33;7.70;;;5.13;;
8490;SDS011;4282;49.986;7.938;2023-01-04T00:54:03;6.93;;;5.33;;
8490;SDS011;4282;49.986;7.938;2023-01-04T00:56:33;5.83;;;4.57;;
8490;SDS011;4282;49.986;7.938;2023-01-04T00:59:02;8.70;;;5.30;;
8490;SDS011;4282;49.986;7.938;2023-01-04T01:01:33;9.60;;;5.17;;
8490;SDS011;4282;49.986;7.938;2023-01-04T01:04:02;6.87;;;5.03;;
8490;SDS011;4282;49.986;7.938;2023-01-04T01:06:32;5.63;;;4.27;;
8490;SDS011;4282;49.986;7.938;2023-01-04T01:09:00;8.83;;;5.20;;
8490;SDS011;4282;49.986;7.938;2023-01-04T01:11:31;5.60;;;4.63;;
8490;SDS011;4282;49.986;7.938;2023-01-04T01:14:00;8.40;;;4.67;;
8490;SDS011;4282;49.986;7.938;2023-01-04T01:16:29;8.87;;;4.57;;
8490;SDS011;4282;49.986;7.938;2023-01-04T01:19:00;9.17;;;4.37;;
8490;SDS011;4282;49.986;7.938;2023-01-04T01:21:28;7.70;;;5.23;;
8490;SDS011;4282;49.986;7.938;2023-01-04T01:23:56;8.50;;;5.20;;
8490;SDS011;4282;49.986;7.938;2023-01-04T01:26:25;10.60;;;5.20;;
8490;SDS011;4282;49.986;7.938;2023-01-04T01:28:53;7.07;;;5.63;;
8490;SDS011;4282;49.986;7.938;2023-01-04T01:31:22;8.10;;;5.37;;
8490;SDS011;4282;49.986;7.938;2023-01-04T01:33:52;9.93;;;5.57;;
8490;SDS011;4282;49.986;7.938;2023-01-04T01:36:24;8.63;;;5.03;;
8490;SDS011;4282;49.986;7.938;2023-01-04T01:38:53;8.73;;;4.97;;
8490;SDS011;4282;49.986;7.938;2023-01-04T01:41:22;8.30;;;5.43;;
8490;SDS011;4282;49.986;7.938;2023-01-04T01:43:53;9.17;;;5.10;;
8490;SDS011;4282;49.986;7.938;2023-01-04T01:46:23;8.43;;;5.20;;
8490;SDS011;4282;49.986;7.938;2023-01-04T01:48:53;11.07;;;5.30;;
8490;SDS011;4282;49.986;7.938;2023-01-04T01:51:27;6.13;;;4.20;;
8490;SDS011;4282;49.986;7.938;2023-01-04T01:53:56;11.33;;;6.27;;
8490;SDS011;4282;49.986;7.938;2023-01-04T01:56:28;9.53;;;5.63;;
8490;SDS011;4282;49.986;7.938;2023-01-04T01:58:58;12.30;;;5.93;;
8490;SDS011;4282;49.986;7.938;2023-01-04T02:01:27;8.23;;;5.47;;
8490;SDS011;4282;49.986;7.938;2023-01-04T02:03:55;11.87;;;6.00;;
8490;SDS011;4282;49.986;7.938;2023-01-04T02:06:24;9.17;;;5.63;;
8490;SDS011;4282;49.986;7.938;2023-01-04T02:08:58;9.47;;;5.50;;
8490;SDS011;4282;49.986;7.938;2023-01-04T02:11:27;12.83;;;5.93;;
8490;SDS011;4282;49.986;7.938;2023-01-04T02:13:55;7.20;;;4.57;;
8490;SDS011;4282;49.986;7.938;2023-01-04T02:16:46;7.83;;;4.87;;
8490;SDS011;4282;49.986;7.938;2023-01-04T02:19:28;10.80;;;5.00;;
8490;SDS011;4282;49.986;7.938;2023-01-04T02:22:12;12.90;;;5.50;;
8490;SDS011;4282;49.986;7.938;2023-01-04T02:28:15;8.17;;;4.67;;
8490;SDS011;4282;49.986;7.938;2023-01-04T02:33:46;6.53;;;4.43;;
8490;SDS011;4282;49.986;7.938;2023-01-04T02:36:20;5.80;;;3.57;;
8490;SDS011;4282;49.986;7.938;2023-01-04T02:39:01;5.37;;;3.23;;
8490;SDS011;4282;49.986;7.938;2023-01-04T02:41:33;7.87;;;4.37;;
8490;SDS011;4282;49.986;7.938;2023-01-04T02:44:07;4.80;;;3.10;;
8490;SDS011;4282;49.986;7.938;2023-01-04T02:46:56;8.47;;;4.10;;
8490;SDS011;4282;49.986;7.938;2023-01-04T02:49:27;7.50;;;3.73;;
8490;SDS011;4282;49.986;7.938;2023-01-04T02:52:07;5.00;;;3.20;;
8490;SDS011;4282;49.986;7.938;2023-01-04T02:54:36;5.60;;;3.77;;
8490;SDS011;4282;49.986;7.938;2023-01-04T03:02:59;6.00;;;2.43;;
8490;SDS011;4282;49.986;7.938;2023-01-04T03:05:49;7.30;;;3.27;;
8490;SDS011;4282;49.986;7.938;2023-01-04T03:08:36;3.87;;;2.83;;
8490;SDS011;4282;49.986;7.938;2023-01-04T03:11:07;3.17;;;2.03;;
8490;SDS011;4282;49.986;7.938;2023-01-04T03:13:58;7.10;;;3.57;;
8490;SDS011;4282;49.986;7.938;2023-01-04T03:16:25;5.00;;;2.20;;
8490;SDS011;4282;49.986;7.938;2023-01-04T03:18:58;3.80;;;2.00;;
8490;SDS011;4282;49.986;7.938;2023-01-04T03:21:33;7.43;;;2.90;;
8490;SDS011;4282;49.986;7.938;2023-01-04T03:24:03;6.10;;;2.10;;
8490;SDS011;4282;49.986;7.938;2023-01-04T03:26:46;3.63;;;1.93;;
8490;SDS011;4282;49.986;7.938;2023-01-04T03:29:29;2.83;;;1.70;;
8490;SDS011;4282;49.986;7.938;2023-01-04T03:32:14;4.47;;;2.80;;
8490;SDS011;4282;49.986;7.938;2023-01-04T03:35:02;4.20;;;2.30;;
8490;SDS011;4282;49.986;7.938;2023-01-04T03:37:44;6.13;;;1.83;;
8490;SDS011;4282;49.986;7.938;2023-01-04T03:40:37;3.13;;;2.40;;
8490;SDS011;4282;49.986;7.938;2023-01-04T03:43:21;5.20;;;1.97;;
8490;SDS011;4282;49.986;7.938;2023-01-04T03:46:04;5.73;;;2.43;;
8490;SDS011;4282;49.986;7.938;2023-01-04T03:48:48;3.10;;;2.33;;
8490;SDS011;4282;49.986;7.938;2023-01-04T03:51:24;3.80;;;2.80;;
8490;SDS011;4282;49.986;7.938;2023-01-04T03:53:54;5.53;;;3.43;;
8490;SDS011;4282;49.986;7.938;2023-01-04T03:56:24;4.37;;;2.77;;
8490;SDS011;4282;49.986;7.938;2023-01-04T03:58:53;4.30;;;2.90;;
8490;SDS011;4282;49.986;7.938;2023-01-04T04:01:22;2.63;;;2.40;;
8490;SDS011;4282;49.986;7.938;2023-01-04T04:03:52;5.10;;;2.97;;
8490;SDS011;4282;49.986;7.938;2023-01-04T04:06:35;7.23;;;3.20;;
8490;SDS011;4282;49.986;7.938;2023-01-04T04:09:16;7.63;;;2.77;;
8490;SDS011;4282;49.986;7.938;2023-01-04T04:11:44;5.37;;;2.63;;
8490;SDS011;4282;49.986;7.938;2023-01-04T04:14:13;3.70;;;2.20;;
8490;SDS011;4282;49.986;7.938;2023-01-04T04:16:41;3.50;;;2.67;;
8490;SDS011;4282;49.986;7.938;2023-01-04T04:19:09;4.77;;;2.70;;
8490;SDS011;4282;49.986;7.938;2023-01-04T04:21:40;4.80;;;3.03;;
8490;SDS011;4282;49.986;7.938;2023-01-04T04:24:09;3.87;;;2.63;;
8490;SDS011;4282;49.986;7.938;2023-01-04T04:26:43;4.90;;;2.83;;
8490;SDS011;4282;49.986;7.938;2023-01-04T04:29:12;5.70;;;2.90;;
8490;SDS011;4282;49.986;7.938;2023-01-04T04:31:40;3.13;;;2.83;;
8490;SDS011;4282;49.986;7.938;2023-01-04T04:34:08;4.17;;;3.03;;
8490;SDS011;4282;49.986;7.938;2023-01-04T04:36:37;5.73;;;2.97;;
8490;SDS011;4282;49.986;7.938;2023-01-04T04:39:07;4.80;;;2.67;;
8490;SDS011;4282;49.986;7.938;2023-01-04T04:41:36;4.30;;;2.90;;
8490;SDS011;4282;49.986;7.938;2023-01-04T04:44:05;6.57;;;3.37;;
8490;SDS011;4282;49.986;7.938;2023-01-04T04:46:34;5.87;;;2.97;;
8490;SDS011;4282;49.986;7.938;2023-01-04T04:49:03;4.80;;;2.83;;
8490;SDS011;4282;49.986;7.938;2023-01-04T04:51:31;4.20;;;3.00;;
8490;SDS011;4282;49.986;7.938;2023-01-04T04:54:03;3.03;;;2.20;;
8490;SDS011;4282;49.986;7.938;2023-01-04T04:56:31;3.83;;;2.77;;
8490;SDS011;4282;49.986;7.938;2023-01-04T04:59:00;5.53;;;2.70;;
8490;SDS011;4282;49.986;7.938;2023-01-04T05:01:29;4.97;;;3.13;;
8490;SDS011;4282;49.986;7.938;2023-01-04T05:03:57;2.80;;;2.57;;
8490;SDS011;4282;49.986;7.938;2023-01-04T05:06:25;5.50;;;4.10;;
8490;SDS011;4282;49.986;7.938;2023-01-04T05:08:55;4.90;;;3.40;;
8490;SDS011;4282;49.986;7.938;2023-01-04T05:11:25;6.30;;;3.17;;
8490;SDS011;4282;49.986;7.938;2023-01-04T05:14:06;3.37;;;2.17;;
8490;SDS011;4282;49.986;7.938;2023-01-04T05:16:35;4.37;;;2.73;;
8490;SDS011;4282;49.986;7.938;2023-01-04T05:19:03;5.13;;;2.73;;
8490;SDS011;4282;49.986;7.938;2023-01-04T05:21:31;5.33;;;2.80;;
8490;SDS011;4282;49.986;7.938;2023-01-04T05:23:59;4.27;;;2.70;;
8490;SDS011;4282;49.986;7.938;2023-01-04T05:26:30;4.40;;;2.77;;
8490;SDS011;4282;49.986;7.938;2023-01-04T05:28:58;3.93;;;2.93;;
8490;SDS011;4282;49.986;7.938;2023-01-04T05:31:27;5.67;;;2.90;;
8490;SDS011;4282;49.986;7.938;2023-01-04T05:33:52;5.33;;;2.80;;
8490;SDS011;4282;49.986;7.938;2023-01-04T05:36:20;6.63;;;4.13;;
8490;SDS011;4282;49.986;7.938;2023-01-04T05:38:49;7.47;;;4.70;;
8490;SDS011;4282;49.986;7.938;2023-01-04T05:41:17;4.93;;;3.10;;
8490;SDS011;4282;49.986;7.938;2023-01-04T05:44:00;4.20;;;3.40;;
8490;SDS011;4282;49.986;7.938;2023-01-04T05:46:28;4.93;;;3.53;;
8490;SDS011;4282;49.986;7.938;2023-01-04T05:48:56;5.70;;;3.13;;
8490;SDS011;4282;49.986;7.938;2023-01-04T05:51:25;5.33;;;3.27;;
8490;SDS011;4282;49.986;7.938;2023-01-04T05:53:53;5.17;;;3.60;;
8490;SDS011;4282;49.986;7.938;2023-01-04T05:56:21;4.07;;;3.00;;
8490;SDS011;4282;49.986;7.938;2023-01-04T05:58:49;5.20;;;2.80;;
8490;SDS011;4282;49.986;7.938;2023-01-04T06:01:20;6.10;;;3.07;;
8490;SDS011;4282;49.986;7.938;2023-01-04T06:03:48;4.57;;;2.70;;
8490;SDS011;4282;49.986;7.938;2023-01-04T06:06:17;3.70;;;2.50;;
8490;SDS011;4282;49.986;7.938;2023-01-04T06:08:45;5.37;;;2.20;;
8490;SDS011;4282;49.986;7.938;2023-01-04T06:11:13;3.07;;;2.10;;
8490;SDS011;4282;49.986;7.938;2023-01-04T06:13:41;6.47;;;2.30;;
8490;SDS011;4282;49.986;7.938;2023-01-04T06:16:09;3.03;;;2.30;;
8490;SDS011;4282;49.986;7.938;2023-01-04T06:18:40;3.63;;;2.20;;
8490;SDS011;4282;49.986;7.938;2023-01-04T06:21:09;3.87;;;1.90;;
8490;SDS011;4282;49.986;7.938;2023-01-04T06:23:37;3.73;;;1.53;;
8490;SDS011;4282;49.986;7.938;2023-01-04T06:26:05;3.23;;;1.70;;
8490;SDS011;4282;49.986;7.938;2023-01-04T06:28:33;4.00;;;1.80;;
8490;SDS011;4282;49.986;7.938;2023-01-04T06:31:02;2.70;;;1.73;;
8490;SDS011;4282;49.986;7.938;2023-01-04T06:33:31;2.73;;;1.60;;
8490;SDS011;4282;49.986;7.938;2023-01-04T06:36:03;3.37;;;1.50;;
8490;SDS011;4282;49.986;7.938;2023-01-04T06:38:32;2.53;;;1.50;;
8490;SDS011;4282;49.986;7.938;2023-01-04T06:41:01;2.10;;;1.60;;
8490;SDS011;4282;49.986;7.938;2023-01-04T06:43:29;1.93;;;1.70;;
8490;SDS011;4282;49.986;7.938;2023-01-04T06:45:57;1.83;;;1.30;;
8490;SDS011;4282;49.986;7.938;2023-01-04T06:48:25;2.50;;;1.57;;
8490;SDS011;4282;49.986;7.938;2023-01-04T06:50:53;3.60;;;1.60;;
8490;SDS011;4282;49.986;7.938;2023-01-04T06:53:24;2.90;;;1.43;;
8490;SDS011;4282;49.986;7.938;2023-01-04T06:55:53;3.90;;;1.60;;
8490;SDS011;4282;49.986;7.938;2023-01-04T06:58:21;2.87;;;1.43;;
8490;SDS011;4282;49.986;7.938;2023-01-04T07:00:49;2.93;;;1.60;;
8490;SDS011;4282;49.986;7.938;2023-01-04T07:03:18;4.93;;;2.17;;
8490;SDS011;4282;49.986;7.938;2023-01-04T07:05:46;2.17;;;1.27;;
8490;SDS011;4282;49.986;7.938;2023-01-04T07:08:14;2.77;;;1.30;;
8490;SDS011;4282;49.986;7.938;2023-01-04T07:10:45;2.60;;;1.47;;
8490;SDS011;4282;49.986;7.938;2023-01-04T07:13:14;2.10;;;1.57;;
8490;SDS011;4282;49.986;7.938;2023-01-04T07:15:42;1.97;;;1.10;;
8490;SDS011;4282;49.986;7.938;2023-01-04T07:18:10;1.87;;;1.00;;
8490;SDS011;4282;49.986;7.938;2023-01-04T07:20:38;2.57;;;1.33;;
8490;SDS011;4282;49.986;7.938;2023-01-04T07:23:07;0.90;;;0.80;;
8490;SDS011;4282;49.986;7.938;2023-01-04T07:25:35;3.00;;;1.10;;
8490;SDS011;4282;49.986;7.938;2023-01-04T07:28:07;2.63;;;0.93;;
8490;SDS011;4282;49.986;7.938;2023-01-04T07:30:35;2.03;;;1.17;;
8490;SDS011;4282;49.986;7.938;2023-01-04T07:33:03;2.67;;;1.10;;
8490;SDS011;4282;49.986;7.938;2023-01-04T07:35:32;1.33;;;1.20;;
8490;SDS011;4282;49.986;7.938;2023-01-04T07:38:00;2.40;;;1.40;;
8490;SDS011;4282;49.986;7.938;2023-01-04T07:40:29;1.63;;;1.13;;
8490;SDS011;4282;49.986;7.938;2023-01-04T07:42:58;2.03;;;1.23;;
8490;SDS011;4282;49.986;7.938;2023-01-04T07:45:29;2.33;;;1.10;;
8490;SDS011;4282;49.986;7.938;2023-01-04T07:48:00;2.03;;;0.77;;
8490;SDS011;4282;49.986;7.938;2023-01-04T07:50:28;2.07;;;1.30;;
8490;SDS011;4282;49.986;7.938;2023-01-04T07:52:56;2.73;;;1.07;;
8490;SDS011;4282;49.986;7.938;2023-01-04T07:55:24;1.30;;;0.90;;
8490;SDS011;4282;49.986;7.938;2023-01-04T07:57:53;1.80;;;1.27;;
8490;SDS011;4282;49.986;7.938;2023-01-04T08:00:21;1.07;;;0.80;;
8490;SDS011;4282;49.986;7.938;2023-01-04T08:02:52;1.40;;;1.20;;
8490;SDS011;4282;49.986;7.938;2023-01-04T08:05:20;1.67;;;1.30;;
8490;SDS011;4282;49.986;7.938;2023-01-04T08:07:49;1.97;;;1.30;;
8490;SDS011;4282;49.986;7.938;2023-01-04T08:10:18;2.90;;;1.20;;
8490;SDS011;4282;49.986;7.938;2023-01-04T08:12:46;1.43;;;1.00;;
8490;SDS011;4282;49.986;7.938;2023-01-04T08:15:14;2.67;;;1.00;;
8490;SDS011;4282;49.986;7.938;2023-01-04T08:17:43;1.60;;;1.13;;
8490;SDS011;4282;49.986;7.938;2023-01-04T08:20:14;3.23;;;1.33;;
8490;SDS011;4282;49.986;7.938;2023-01-04T08:22:43;1.97;;;1.13;;
8490;SDS011;4282;49.986;7.938;2023-01-04T08:25:11;3.97;;;1.30;;
8490;SDS011;4282;49.986;7.938;2023-01-04T08:27:39;2.40;;;1.40;;
8490;SDS011;4282;49.986;7.938;2023-01-04T08:30:08;3.37;;;1.40;;
8490;SDS011;4282;49.986;7.938;2023-01-04T08:32:38;2.53;;;1.37;;
8490;SDS011;4282;49.986;7.938;2023-01-04T08:35:06;1.60;;;1.27;;
8490;SDS011;4282;49.986;7.938;2023-01-04T08:37:38;1.73;;;1.47;;
8490;SDS011;4282;49.986;7.938;2023-01-04T08:40:07;1.93;;;1.40;;
8490;SDS011;4282;49.986;7.938;2023-01-04T08:42:36;2.83;;;1.20;;
8490;SDS011;4282;49.986;7.938;2023-01-04T08:45:05;2.70;;;1.53;;
8490;SDS011;4282;49.986;7.938;2023-01-04T08:47:34;2.67;;;1.30;;
8490;SDS011;4282;49.986;7.938;2023-01-04T08:50:03;2.10;;;1.27;;
8490;SDS011;4282;49.986;7.938;2023-01-04T08:52:31;3.57;;;1.33;;
8490;SDS011;4282;49.986;7.938;2023-01-04T08:55:02;1.77;;;1.27;;
8490;SDS011;4282;49.986;7.938;2023-01-04T08:57:32;1.43;;;0.90;;
8490;SDS011;4282;49.986;7.938;2023-01-04T09:00:01;1.57;;;1.10;;
8490;SDS011;4282;49.986;7.938;2023-01-04T09:02:30;1.10;;;1.00;;
8490;SDS011;4282;49.986;7.938;2023-01-04T09:04:58;1.37;;;1.27;;
8490;SDS011;4282;49.986;7.938;2023-01-04T09:07:28;1.03;;;0.93;;
8490;SDS011;4282;49.986;7.938;2023-01-04T09:09:57;1.43;;;1.10;;
8490;SDS011;4282;49.986;7.938;2023-01-04T09:12:28;2.47;;;1.07;;
8490;SDS011;4282;49.986;7.938;2023-01-04T09:14:56;1.17;;;0.93;;
8490;SDS011;4282;49.986;7.938;2023-01-04T09:17:27;0.93;;;0.80;;
8490;SDS011;4282;49.986;7.938;2023-01-04T09:19:55;7.07;;;4.50;;
8490;SDS011;4282;49.986;7.938;2023-01-04T09:22:23;2.50;;;1.50;;
8490;SDS011;4282;49.986;7.938;2023-01-04T09:24:51;2.73;;;1.53;;
8490;SDS011;4282;49.986;7.938;2023-01-04T09:27:20;2.53;;;1.30;;
8490;SDS011;4282;49.986;7.938;2023-01-04T09:29:51;4.03;;;2.90;;
8490;SDS011;4282;49.986;7.938;2023-01-04T09:32:19;2.93;;;1.70;;
8490;SDS011;4282;49.986;7.938;2023-01-04T09:34:48;4.13;;;1.30;;
8490;SDS011;4282;49.986;7.938;2023-01-04T09:37:16;1.63;;;1.30;;
8490;SDS011;4282;49.986;7.938;2023-01-04T09:39:45;1.83;;;1.40;;
8490;SDS011;4282;49.986;7.938;2023-01-04T09:42:15;2.40;;;1.20;;
8490;SDS011;4282;49.986;7.938;2023-01-04T09:44:48;4.13;;;2.03;;
8490;SDS011;4282;49.986;7.938;2023-01-04T09:47:22;3.03;;;2.20;;
8490;SDS011;4282;49.986;7.938;2023-01-04T09:49:56;2.33;;;1.90;;
8490;SDS011;4282;49.986;7.938;2023-01-04T09:52:27;2.47;;;1.63;;
8490;SDS011;4282;49.986;7.938;2023-01-04T09:55:06;2.23;;;1.67;;
8490;SDS011;4282;49.986;7.938;2023-01-04T09:57:38;2.43;;;1.40;;
8490;SDS011;4282;49.986;7.938;2023-01-04T10:00:13;2.30;;;1.20;;
8490;SDS011;4282;49.986;7.938;2023-01-04T10:02:46;1.50;;;1.20;;
8490;SDS011;4282;49.986;7.938;2023-01-04T10:05:17;4.07;;;1.80;;
8490;SDS011;4282;49.986;7.938;2023-01-04T10:07:48;1.53;;;1.30;;
8490;SDS011;4282;49.986;7.938;2023-01-04T10:10:17;1.80;;;1.20;;
8490;SDS011;4282;49.986;7.938;2023-01-04T10:12:51;2.00;;;1.73;;
8490;SDS011;4282;49.986;7.938;2023-01-04T10:15:28;2.40;;;1.97;;
8490;SDS011;4282;49.986;7.938;2023-01-04T10:18:08;3.73;;;2.53;;
8490;SDS011;4282;49.986;7.938;2023-01-04T10:20:59;3.27;;;1.53;;
8490;SDS011;4282;49.986;7.938;2023-01-04T10:23:38;1.03;;;0.93;;
8490;SDS011;4282;49.986;7.938;2023-01-04T10:26:11;1.40;;;1.30;;
8490;SDS011;4282;49.986;7.938;2023-01-04T10:28:49;1.87;;;1.77;;
8490;SDS011;4282;49.986;7.938;2023-01-04T10:31:32;1.53;;;1.33;;
8490;SDS011;4282;49.986;7.938;2023-01-04T10:34:05;2.03;;;1.40;;
8490;SDS011;4282;49.986;7.938;2023-01-04T10:36:43;2.00;;;1.60;;
8490;SDS011;4282;49.986;7.938;2023-01-04T10:39:14;1.77;;;1.47;;
8490;SDS011;4282;49.986;7.938;2023-01-04T10:41:43;3.30;;;1.87;;
8490;SDS011;4282;49.986;7.938;2023-01-04T10:44:15;3.47;;;2.20;;
8490;SDS011;4282;49.986;7.938;2023-01-04T10:46:49;3.43;;;2.10;;
8490;SDS011;4282;49.986;7.938;2023-01-04T10:49:21;13.97;;;10.73;;
8490;SDS011;4282;49.986;7.938;2023-01-04T10:51:54;3.03;;;2.10;;
8490;SDS011;4282;49.986;7.938;2023-01-04T10:54:26;1.50;;;1.40;;
8490;SDS011;4282;49.986;7.938;2023-01-04T10:56:57;2.50;;;1.70;;
8490;SDS011;4282;49.986;7.938;2023-01-04T10:59:30;4.00;;;1.70;;
8490;SDS011;4282;49.986;7.938;2023-01-04T11:02:08;2.20;;;1.40;;
8490;SDS011;4282;49.986;7.938;2023-01-04T11:04:43;2.70;;;1.60;;
8490;SDS011;4282;49.986;7.938;2023-01-04T11:07:16;0.80;;;0.80;;
8490;SDS011;4282;49.986;7.938;2023-01-04T11:09:48;3.70;;;1.40;;
8490;SDS011;4282;49.986;7.938;2023-01-04T11:12:18;3.37;;;1.00;;
8490;SDS011;4282;49.986;7.938;2023-01-04T11:14:48;2.00;;;1.30;;
8490;SDS011;4282;49.986;7.938;2023-01-04T11:17:19;2.03;;;1.67;;
8490;SDS011;4282;49.986;7.938;2023-01-04T11:19:48;0.50;;;0.50;;
8490;SDS011;4282;49.986;7.938;2023-01-04T11:22:18;2.90;;;1.57;;
8490;SDS011;4282;49.986;7.938;2023-01-04T11:24:48;2.77;;;1.53;;
8490;SDS011;4282;49.986;7.938;2023-01-04T11:27:20;2.47;;;0.97;;
8490;SDS011;4282;49.986;7.938;2023-01-04T11:29:50;3.83;;;2.13;;
8490;SDS011;4282;49.986;7.938;2023-01-04T11:32:26;0.50;;;0.50;;
8490;SDS011;4282;49.986;7.938;2023-01-04T11:35:01;0.93;;;0.73;;
8490;SDS011;4282;49.986;7.938;2023-01-04T11:37:30;0.90;;;0.70;;
8490;SDS011;4282;49.986;7.938;2023-01-04T11:43:09;0.70;;;0.70;;
8490;SDS011;4282;49.986;7.938;2023-01-04T11:45:39;1.23;;;0.67;;
8490;SDS011;4282;49.986;7.938;2023-01-04T11:48:10;0.97;;;0.70;;
8490;SDS011;4282;49.986;7.938;2023-01-04T11:50:42;0.60;;;0.60;;
8490;SDS011;4282;49.986;7.938;2023-01-04T11:58:43;0.83;;;0.40;;
8490;SDS011;4282;49.986;7.938;2023-01-04T12:01:19;2.43;;;1.00;;
8490;SDS011;4282;49.986;7.938;2023-01-04T12:03:51;1.40;;;1.00;;
8490;SDS011;4282;49.986;7.938;2023-01-04T12:06:21;0.70;;;0.70;;
8490;SDS011;4282;49.986;7.938;2023-01-04T12:08:54;1.10;;;1.00;;
8490;SDS011;4282;49.986;7.938;2023-01-04T12:11:23;0.90;;;0.80;;
8490;SDS011;4282;49.986;7.938;2023-01-04T12:13:55;1.37;;;1.20;;
8490;SDS011;4282;49.986;7.938;2023-01-04T12:16:27;1.87;;;1.40;;
8490;SDS011;4282;49.986;7.938;2023-01-04T12:19:11;2.10;;;1.53;;
8490;SDS011;4282;49.986;7.938;2023-01-04T12:21:41;1.77;;;1.37;;
8490;SDS011;4282;49.986;7.938;2023-01-04T12:24:12;1.30;;;1.10;;
8490;SDS011;4282;49.986;7.938;2023-01-04T12:26:43;0.90;;;0.90;;
8490;SDS011;4282;49.986;7.938;2023-01-04T12:35:01;1.20;;;0.97;;
8490;SDS011;4282;49.986;7.938;2023-01-04T12:43:22;2.37;;;1.30;;
8490;SDS011;4282;49.986;7.938;2023-01-04T12:49:15;1.40;;;1.30;;
8490;SDS011;4282;49.986;7.938;2023-01-04T12:52:39;1.40;;;1.30;;
8490;SDS011;4282;49.986;7.938;2023-01-04T12:55:23;4.00;;;1.27;;
8490;SDS011;4282;49.986;7.938;2023-01-04T12:57:53;2.00;;;1.47;;
8490;SDS011;4282;49.986;7.938;2023-01-04T13:00:23;1.87;;;1.17;;
8490;SDS011;4282;49.986;7.938;2023-01-04T13:03:34;1.20;;;1.10;;
8490;SDS011;4282;49.986;7.938;2023-01-04T13:06:12;2.93;;;2.30;;
8490;SDS011;4282;49.986;7.938;2023-01-04T13:08:40;2.00;;;1.63;;
8490;SDS011;4282;49.986;7.938;2023-01-04T13:11:17;1.30;;;1.10;;
8490;SDS011;4282;49.986;7.938;2023-01-04T13:13:53;1.27;;;1.17;;
8490;SDS011;4282;49.986;7.938;2023-01-04T13:16:26;1.20;;;1.10;;
8490;SDS011;4282;49.986;7.938;2023-01-04T13:19:01;1.60;;;1.30;;
8490;SDS011;4282;49.986;7.938;2023-01-04T13:21:35;1.77;;;1.10;;
8490;SDS011;4282;49.986;7.938;2023-01-04T13:24:13;0.97;;;0.97;;
8490;SDS011;4282;49.986;7.938;2023-01-04T13:26:47;1.23;;;1.13;;
8490;SDS011;4282;49.986;7.938;2023-01-04T13:29:17;1.03;;;0.93;;
8490;SDS011;4282;49.986;7.938;2023-01-04T13:31:48;1.33;;;1.20;;
8490;SDS011;4282;49.986;7.938;2023-01-04T13:34:20;2.47;;;1.37;;
8490;SDS011;4282;49.986;7.938;2023-01-04T13:36:59;1.13;;;1.03;;
8490;SDS011;4282;49.986;7.938;2023-01-04T13:39:33;2.10;;;1.30;;
8490;SDS011;4282;49.986;7.938;2023-01-04T13:42:02;2.80;;;1.30;;
8490;SDS011;4282;49.986;7.938;2023-01-04T13:44:43;1.10;;;1.00;;
8490;SDS011;4282;49.986;7.938;2023-01-04T13:47:26;0.83;;;0.83;;
8490;SDS011;4282;49.986;7.938;2023-01-04T13:49:55;1.50;;;1.10;;
8490;SDS011;4282;49.986;7.938;2023-01-04T13:52:26;1.40;;;1.30;;
8490;SDS011;4282;49.986;7.938;2023-01-04T13:55:08;0.80;;;0.80;;
8490;SDS011;4282;49.986;7.938;2023-01-04T13:57:37;1.40;;;1.00;;
8490;SDS011;4282;49.986;7.938;2023-01-04T14:00:06;1.20;;;1.10;;
8490;SDS011;4282;49.986;7.938;2023-01-04T14:02:37;1.33;;;0.93;;
8490;SDS011;4282;49.986;7.938;2023-01-04T14:05:12;2.60;;;0.73;;
8490;SDS011;4282;49.986;7.938;2023-01-04T14:07:44;1.17;;;1.07;;
8490;SDS011;4282;49.986;7.938;2023-01-04T14:10:14;1.50;;;1.10;;
8490;SDS011;4282;49.986;7.938;2023-01-04T14:12:43;0.93;;;0.80;;
8490;SDS011;4282;49.986;7.938;2023-01-04T14:15:14;0.80;;;0.80;;
8490;SDS011;4282;49.986;7.938;2023-01-04T14:17:46;1.00;;;0.80;;
8490;SDS011;4282;49.986;7.938;2023-01-04T14:23:02;1.87;;;1.20;;
8490;SDS011;4282;49.986;7.938;2023-01-04T14:25:38;1.60;;;1.30;;
8490;SDS011;4282;49.986;7.938;2023-01-04T14:28:19;0.97;;;0.87;;
8490;SDS011;4282;49.986;7.938;2023-01-04T14:30:53;1.57;;;0.90;;
8490;SDS011;4282;49.986;7.938;2023-01-04T14:33:29;1.10;;;1.00;;
8490;SDS011;4282;49.986;7.938;2023-01-04T14:36:00;1.00;;;0.90;;
8490;SDS011;4282;49.986;7.938;2023-01-04T14:38:33;1.37;;;1.20;;
8490;SDS011;4282;49.986;7.938;2023-01-04T14:41:09;1.33;;;1.10;;
8490;SDS011;4282;49.986;7.938;2023-01-04T14:43:42;2.20;;;0.90;;
8490;SDS011;4282;49.986;7.938;2023-01-04T14:46:12;1.93;;;1.20;;
8490;SDS011;4282;49.986;7.938;2023-01-04T14:48:40;1.50;;;1.00;;
8490;SDS011;4282;49.986;7.938;2023-01-04T14:51:09;1.77;;;1.10;;
8490;SDS011;4282;49.986;7.938;2023-01-04T14:53:42;1.47;;;1.00;;
8490;SDS011;4282;49.986;7.938;2023-01-04T14:56:11;1.00;;;0.90;;
8490;SDS011;4282;49.986;7.938;2023-01-04T14:58:41;1.07;;;0.90;;
8490;SDS011;4282;49.986;7.938;2023-01-04T15:01:10;2.47;;;1.20;;
8490;SDS011;4282;49.986;7.938;2023-01-04T15:03:39;1.23;;;1.10;;
8490;SDS011;4282;49.986;7.938;2023-01-04T15:06:07;3.03;;;1.10;;
8490;SDS011;4282;49.986;7.938;2023-01-04T15:08:36;1.83;;;1.70;;
8490;SDS011;4282;49.986;7.938;2023-01-04T15:11:08;1.77;;;1.23;;
8490;SDS011;4282;49.986;7.938;2023-01-04T15:13:37;2.20;;;1.43;;
8490;SDS011;4282;49.986;7.938;2023-01-04T15:16:05;3.03;;;1.43;;
8490;SDS011;4282;49.986;7.938;2023-01-04T15:18:36;2.47;;;1.33;;
8490;SDS011;4282;49.986;7.938;2023-01-04T15:21:04;3.73;;;1.40;;
8490;SDS011;4282;49.986;7.938;2023-01-04T15:23:33;1.70;;;1.20;;
8490;SDS011;4282;49.986;7.938;2023-01-04T15:26:03;1.73;;;1.20;;
8490;SDS011;4282;49.986;7.938;2023-01-04T15:28:34;1.87;;;1.40;;
8490;SDS011;4282;49.986;7.938;2023-01-04T15:31:04;1.50;;;1.40;;
8490;SDS011;4282;49.986;7.938;2023-01-04T15:33:33;2.77;;;1.80;;
8490;SDS011;4282;49.986;7.938;2023-01-04T15:36:03;2.07;;;1.67;;
8490;SDS011;4282;49.986;7.938;2023-01-04T15:38:32;1.53;;;1.43;;
8490;SDS011;4282;49.986;7.938;2023-01-04T15:41:01;3.00;;;2.80;;
8490;SDS011;4282;49.986;7.938;2023-01-04T15:43:35;5.67;;;4.77;;
8490;SDS011;4282;49.986;7.938;2023-01-04T15:46:01;11.33;;;9.60;;
8490;SDS011;4282;49.986;7.938;2023-01-04T15:48:31;5.87;;;5.37;;
8490;SDS011;4282;49.986;7.938;2023-01-04T15:51:02;2.30;;;2.00;;
8490;SDS011;4282;49.986;7.938;2023-01-04T15:53:31;7.77;;;6.17;;
8490;SDS011;4282;49.986;7.938;2023-01-04T15:56:08;1.70;;;1.60;;
8490;SDS011;4282;49.986;7.938;2023-01-04T15:58:41;2.20;;;2.00;;
8490;SDS011;4282;49.986;7.938;2023-01-04T16:01:10;2.83;;;2.63;;
8490;SDS011;4282;49.986;7.938;2023-01-04T16:03:40;1.87;;;1.03;;
8490;SDS011;4282;49.986;7.938;2023-01-04T16:06:09;1.10;;;1.00;;
8490;SDS011;4282;49.986;7.938;2023-01-04T16:08:39;1.87;;;1.77;;
8490;SDS011;4282;49.986;7.938;2023-01-04T16:11:12;1.40;;;1.23;;
8490;SDS011;4282;49.986;7.938;2023-01-04T16:13:45;2.07;;;1.13;;
8490;SDS011;4282;49.986;7.938;2023-01-04T16:16:15;1.50;;;1.20;;
8490;SDS011;4282;49.986;7.938;2023-01-04T16:18:44;1.60;;;1.40;;
8490;SDS011;4282;49.986;7.938;2023-01-04T16:21:13;3.17;;;2.27;;